createdAt,value
2023-02-11T00:00:53.029Z,394.6
2023-02-11T00:01:55.203Z,394.3
2023-02-11T00:02:57.389Z,394.4
2023-02-11T00:03:59.410Z,394.7
2023-02-11T00:05:01.214Z,394.9
2023-02-11T00:06:03.099Z,394.7
2023-02-11T00:07:04.928Z,394.7
2023-02-11T00:08:06.803Z,395.2
2023-02-11T00:09:09.259Z,394.9
2023-02-11T00:10:11.112Z,395.5
2023-02-11T00:11:12.958Z,395.4
2023-02-11T00:12:14.811Z,394.9
2023-02-11T00:13:16.860Z,395
2023-02-11T00:14:18.847Z,395.2
2023-02-11T00:15:20.852Z,395.2
2023-02-11T00:16:22.989Z,395.4
2023-02-11T00:17:24.898Z,395.1
2023-02-11T00:18:26.686Z,394.9
2023-02-11T00:19:28.685Z,394.8
2023-02-11T00:20:30.615Z,394.6
2023-02-11T00:21:32.478Z,395.1
2023-02-11T00:22:34.336Z,395
2023-02-11T00:23:36.180Z,395.3
2023-02-11T00:24:38.150Z,395.4
2023-02-11T00:25:39.981Z,395.2
2023-02-11T00:26:41.925Z,395.2
2023-02-11T00:27:43.800Z,395.3
2023-02-11T00:28:45.750Z,395.4
2023-02-11T00:29:47.731Z,395.5
2023-02-11T00:30:50.051Z,395.6
2023-02-11T00:31:52.564Z,395.6
2023-02-11T00:32:54.566Z,395.6
2023-02-11T00:33:56.519Z,395.8
2023-02-11T00:34:58.333Z,395.9
2023-02-11T00:36:00.229Z,395.6
2023-02-11T00:37:02.866Z,395.5
2023-02-11T00:38:04.830Z,395.2
2023-02-11T00:39:09.561Z,395.4
2023-02-11T00:40:11.301Z,395.3
2023-02-11T00:41:13.257Z,395
2023-02-11T00:42:15.101Z,395.2
2023-02-11T00:43:16.949Z,394.8
2023-02-11T00:44:18.801Z,395
2023-02-11T00:45:20.676Z,395.1
2023-02-11T00:46:23.031Z,395
2023-02-11T00:47:27.668Z,395.4
2023-02-11T00:48:29.482Z,395.8
2023-02-11T00:49:31.330Z,396.3
2023-02-11T00:50:33.191Z,395.9
2023-02-11T00:51:35.123Z,395.8
2023-02-11T00:52:36.996Z,395.9
2023-02-11T00:53:38.864Z,396
2023-02-11T00:54:40.686Z,396
2023-02-11T00:55:42.649Z,396.3
2023-02-11T00:56:44.997Z,396.5
2023-02-11T00:57:46.869Z,396.3
2023-02-11T00:58:48.797Z,396.3
2023-02-11T00:59:50.676Z,396.6
2023-02-11T01:00:52.622Z,396.9
2023-02-11T01:01:54.566Z,396.9
2023-02-11T01:02:56.410Z,397.2
2023-02-11T01:03:58.260Z,397.1
2023-02-11T01:05:00.521Z,396.5
2023-02-11T01:06:02.394Z,396.7
2023-02-11T01:07:04.216Z,396.2
2023-02-11T01:08:06.088Z,396.6
2023-02-11T01:09:07.930Z,396.4
2023-02-11T01:10:09.769Z,396.5
2023-02-11T01:11:11.607Z,396.8
2023-02-11T01:12:13.478Z,396.9
2023-02-11T01:13:15.320Z,396.6
2023-02-11T01:14:17.168Z,396.9
2023-02-11T01:15:18.931Z,397.3
2023-02-11T01:16:21.281Z,397
2023-02-11T01:17:23.233Z,397.5
2023-02-11T01:18:25.079Z,397.4
2023-02-11T01:19:27.230Z,397.4
2023-02-11T01:20:29.044Z,397.4
2023-02-11T01:21:30.895Z,397.5
2023-02-11T01:22:32.908Z,397.4
2023-02-11T01:23:34.762Z,397.6
2023-02-11T01:24:36.584Z,397.7
2023-02-11T01:25:38.640Z,397.9
2023-02-11T01:26:40.488Z,397.8
2023-02-11T01:27:42.244Z,397.7
2023-02-11T01:28:44.100Z,397.7
2023-02-11T01:29:45.979Z,397.5
2023-02-11T01:30:48.103Z,397.4
2023-02-11T01:31:50.311Z,397.5
2023-02-11T01:32:52.180Z,397.5
2023-02-11T01:33:54.070Z,397.5
2023-02-11T01:34:55.895Z,397.5
2023-02-11T01:35:57.866Z,397.4
2023-02-11T01:36:59.761Z,397.6
2023-02-11T01:38:01.815Z,397.7
2023-02-11T01:39:03.602Z,397.7
2023-02-11T01:40:05.441Z,397.8
2023-02-11T01:41:07.360Z,397.9
2023-02-11T01:42:09.287Z,397.8
2023-02-11T01:43:11.142Z,397.8
2023-02-11T01:44:13.074Z,397.7
2023-02-11T01:45:14.923Z,397.4
2023-02-11T01:46:17.130Z,397.4
2023-02-11T01:47:18.965Z,397.7
2023-02-11T01:48:20.781Z,397.5
2023-02-11T01:49:22.940Z,398.2
2023-02-11T01:50:24.797Z,397.9
2023-02-11T01:51:26.747Z,397.8
2023-02-11T01:52:28.605Z,398
2023-02-11T01:53:30.385Z,397.6
2023-02-11T01:54:32.284Z,398.1
2023-02-11T01:55:34.145Z,398.1
2023-02-11T01:56:35.981Z,397.9
2023-02-11T01:57:37.737Z,398.1
2023-02-11T01:58:39.580Z,398
2023-02-11T01:59:41.440Z,398.1
2023-02-11T02:00:43.308Z,398.2
2023-02-11T02:01:45.265Z,398.2
2023-02-11T02:02:47.219Z,398.2
2023-02-11T02:03:49.304Z,398.5
2023-02-11T02:04:51.303Z,398.8
2023-02-11T02:05:53.585Z,398.7
2023-02-11T02:06:55.411Z,398.5
2023-02-11T02:07:57.260Z,398.3
2023-02-11T02:08:59.004Z,398.8
2023-02-11T02:10:00.965Z,398.6
2023-02-11T02:11:02.832Z,398.5
2023-02-11T02:12:04.651Z,398.7
2023-02-11T02:13:06.524Z,398.6
2023-02-11T02:14:08.369Z,399.2
2023-02-11T02:15:10.212Z,398.9
2023-02-11T02:16:12.423Z,398.5
2023-02-11T02:17:14.318Z,398.7
2023-02-11T02:18:16.197Z,398.5
2023-02-11T02:19:17.923Z,398.2
2023-02-11T02:20:19.728Z,398.2
2023-02-11T02:21:21.524Z,397.9
2023-02-11T02:22:23.366Z,398.2
2023-02-11T02:23:25.630Z,398.5
2023-02-11T02:24:27.487Z,398.3
2023-02-11T02:25:29.233Z,398.6
2023-02-11T02:26:31.189Z,398.2
2023-02-11T02:27:33.126Z,398.4
2023-02-11T02:28:35.304Z,398.9
2023-02-11T02:29:37.027Z,398.8
2023-02-11T02:30:38.889Z,398.7
2023-02-11T02:31:41.049Z,398.7
2023-02-11T02:32:42.886Z,398.7
2023-02-11T02:33:47.625Z,398.5
2023-02-11T02:34:49.453Z,398.7
2023-02-11T02:35:52.221Z,398.5
2023-02-11T02:36:54.063Z,398.8
2023-02-11T02:37:55.924Z,398.7
2023-02-11T02:38:57.889Z,398.3
2023-02-11T02:39:59.715Z,398.2
2023-02-11T02:41:01.824Z,398.4
2023-02-11T02:42:03.729Z,398.9
2023-02-11T02:43:05.499Z,398.5
2023-02-11T02:44:07.421Z,398.8
2023-02-11T02:45:09.205Z,398.5
2023-02-11T02:46:11.273Z,398.3
2023-02-11T02:47:13.304Z,398.5
2023-02-11T02:48:15.255Z,398.5
2023-02-11T02:49:17.229Z,398.6
2023-02-11T02:50:19.036Z,398.4
2023-02-11T02:51:20.899Z,398.3
2023-02-11T02:52:22.757Z,399
2023-02-11T02:53:24.712Z,398.7
2023-02-11T02:54:26.659Z,398.6
2023-02-11T02:55:28.508Z,398.4
2023-02-11T02:56:30.366Z,398.8
2023-02-11T02:57:32.312Z,398.3
2023-02-11T02:58:34.249Z,398.1
2023-02-11T02:59:36.109Z,398
2023-02-11T03:00:38.097Z,397.8
2023-02-11T03:01:39.912Z,397.6
2023-02-11T03:02:41.956Z,398
2023-02-11T03:03:44.378Z,397.7
2023-02-11T03:04:46.506Z,397.5
2023-02-11T03:05:49.569Z,397.6
2023-02-11T03:06:51.530Z,397.4
2023-02-11T03:07:53.380Z,397.5
2023-02-11T03:08:55.241Z,397.6
2023-02-11T03:09:57.160Z,397.9
2023-02-11T03:10:59.018Z,397.9
2023-02-11T03:12:00.867Z,398
2023-02-11T03:13:05.192Z,397.9
2023-02-11T03:14:07.031Z,398.1
2023-02-11T03:15:08.874Z,398.1
2023-02-11T03:16:11.066Z,398.2
2023-02-11T03:17:13.104Z,398.1
2023-02-11T03:18:14.985Z,397.6
2023-02-11T03:19:16.797Z,397.8
2023-02-11T03:20:18.759Z,397.8
2023-02-11T03:21:20.700Z,397.8
2023-02-11T03:22:22.534Z,397.7
2023-02-11T03:23:24.504Z,397.9
2023-02-11T03:24:26.444Z,397.8
2023-02-11T03:25:28.121Z,397.7
2023-02-11T03:26:29.923Z,397.9
2023-02-11T03:27:31.690Z,398.1
2023-02-11T03:28:34.120Z,398.6
2023-02-11T03:29:35.996Z,398.8
2023-02-11T03:30:37.855Z,398.5
2023-02-11T03:31:40.444Z,398.7
2023-02-11T03:32:42.465Z,398.5
2023-02-11T03:33:44.435Z,398.5
2023-02-11T03:34:46.269Z,398.5
2023-02-11T03:35:49.474Z,398.6
2023-02-11T03:36:51.496Z,398.4
2023-02-11T03:37:53.372Z,398.7
2023-02-11T03:38:55.334Z,398.3
2023-02-11T03:39:57.783Z,398.3
2023-02-11T03:40:59.640Z,398.3
2023-02-11T03:42:01.482Z,398.3
2023-02-11T03:43:03.364Z,398.4
2023-02-11T03:44:05.286Z,398.6
2023-02-11T03:45:07.140Z,398.4
2023-02-11T03:46:09.286Z,398.3
2023-02-11T03:47:11.140Z,397.8
2023-02-11T03:48:13.097Z,398.4
2023-02-11T03:49:14.936Z,398.2
2023-02-11T03:50:16.782Z,398.2
2023-02-11T03:51:18.671Z,398.5
2023-02-11T03:52:20.469Z,398.6
2023-02-11T03:53:22.341Z,398.7
2023-02-11T03:54:24.190Z,398.7
2023-02-11T03:55:26.056Z,398.8
2023-02-11T03:56:27.987Z,399.4
2023-02-11T03:57:29.944Z,399
2023-02-11T03:58:31.920Z,399.3
2023-02-11T03:59:33.754Z,399.4
2023-02-11T04:00:35.570Z,399.4
2023-02-11T04:01:37.447Z,399.5
2023-02-11T04:02:39.402Z,399.1
2023-02-11T04:03:41.266Z,399.1
2023-02-11T04:04:43.199Z,398.9
2023-02-11T04:05:45.155Z,398.8
2023-02-11T04:06:47.156Z,398.7
2023-02-11T04:07:48.953Z,398.8
2023-02-11T04:08:50.809Z,398.7
2023-02-11T04:09:52.661Z,399.1
2023-02-11T04:10:54.417Z,398.6
2023-02-11T04:11:56.377Z,398.4
2023-02-11T04:12:58.422Z,398.6
2023-02-11T04:14:00.265Z,398.8
2023-02-11T04:15:02.128Z,398.6
2023-02-11T04:16:04.186Z,398.7
2023-02-11T04:17:06.131Z,398.6
2023-02-11T04:18:08.056Z,398.9
2023-02-11T04:19:09.793Z,398.7
2023-02-11T04:20:11.663Z,398.6
2023-02-11T04:21:13.529Z,398.5
2023-02-11T04:22:15.510Z,398.2
2023-02-11T04:23:17.424Z,398.7
2023-02-11T04:24:19.371Z,398.6
2023-02-11T04:25:21.120Z,398.8
2023-02-11T04:26:22.902Z,398.6
2023-02-11T04:27:27.693Z,398.4
2023-02-11T04:28:29.866Z,398.4
2023-02-11T04:29:31.811Z,398.8
2023-02-11T04:30:33.619Z,398.8
2023-02-11T04:31:35.631Z,398.8
2023-02-11T04:32:37.461Z,398.7
2023-02-11T04:33:39.318Z,398.8
2023-02-11T04:34:41.075Z,398.7
2023-02-11T04:35:42.895Z,398.5
2023-02-11T04:36:44.744Z,398.5
2023-02-11T04:37:46.640Z,398.5
2023-02-11T04:38:48.450Z,398.8
2023-02-11T04:39:50.300Z,398.9
2023-02-11T04:40:52.154Z,398.8
2023-02-11T04:41:56.876Z,398.9
2023-02-11T04:42:58.696Z,399.2
2023-02-11T04:44:00.676Z,399.5
2023-02-11T04:45:02.547Z,399.1
2023-02-11T04:46:04.740Z,399.4
2023-02-11T04:47:06.648Z,399.7
2023-02-11T04:48:08.426Z,399.3
2023-02-11T04:49:10.223Z,399.5
2023-02-11T04:50:12.087Z,399.5
2023-02-11T04:51:14.038Z,399.4
2023-02-11T04:52:15.888Z,399.6
2023-02-11T04:53:17.777Z,399.6
2023-02-11T04:54:19.580Z,399.8
2023-02-11T04:55:21.457Z,399.7
2023-02-11T04:56:23.380Z,399.6
2023-02-11T04:57:25.255Z,399.7
2023-02-11T04:58:27.184Z,399.5
2023-02-11T04:59:29.041Z,399.6
2023-02-11T05:00:30.781Z,399.7
2023-02-11T05:01:32.863Z,400
2023-02-11T05:02:34.919Z,399.7
2023-02-11T05:03:36.641Z,399.5
2023-02-11T05:04:38.618Z,399.6
2023-02-11T05:05:40.448Z,399.7
2023-02-11T05:06:42.221Z,400.1
2023-02-11T05:07:44.071Z,400.4
2023-02-11T05:08:48.788Z,400.4
2023-02-11T05:09:50.594Z,400.7
2023-02-11T05:10:52.468Z,400.5
2023-02-11T05:11:54.200Z,400.3
2023-02-11T05:12:56.777Z,400.4
2023-02-11T05:13:58.719Z,400.6
2023-02-11T05:15:00.573Z,400.9
2023-02-11T05:16:02.420Z,400.6
2023-02-11T05:17:04.594Z,400.5
2023-02-11T05:18:06.424Z,400.6
2023-02-11T05:19:08.284Z,400.6
2023-02-11T05:20:10.036Z,400.6
2023-02-11T05:21:11.882Z,400.9
2023-02-11T05:22:13.739Z,401.1
2023-02-11T05:23:16.089Z,400.9
2023-02-11T05:24:18.073Z,400.9
2023-02-11T05:25:19.888Z,401.1
2023-02-11T05:26:21.859Z,401.2
2023-02-11T05:27:24.214Z,401.4
2023-02-11T05:28:26.305Z,401
2023-02-11T05:29:28.230Z,400.9
2023-02-11T05:30:30.304Z,400.7
2023-02-11T05:31:32.133Z,400.5
2023-02-11T05:32:34.078Z,400.2
2023-02-11T05:33:35.946Z,400.3
2023-02-11T05:34:37.774Z,400.6
2023-02-11T05:35:39.624Z,400.2
2023-02-11T05:36:41.471Z,400.2
2023-02-11T05:37:43.453Z,400.5
2023-02-11T05:38:45.267Z,401
2023-02-11T05:39:47.355Z,401
2023-02-11T05:40:49.179Z,400.8
2023-02-11T05:41:51.126Z,400.7
2023-02-11T05:42:52.980Z,400.8
2023-02-11T05:43:54.811Z,400.8
2023-02-11T05:44:56.673Z,401
2023-02-11T05:45:58.467Z,401.1
2023-02-11T05:47:00.273Z,401.1
2023-02-11T05:48:02.230Z,400.9
2023-02-11T05:49:04.081Z,400.6
2023-02-11T05:50:05.935Z,400.6
2023-02-11T05:51:07.774Z,400.8
2023-02-11T05:52:09.627Z,400.8
2023-02-11T05:53:11.792Z,400.7
2023-02-11T05:54:13.750Z,400.8
2023-02-11T05:55:15.620Z,400.7
2023-02-11T05:56:17.537Z,400.1
2023-02-11T05:57:19.294Z,400.5
2023-02-11T05:58:21.136Z,400.5
2023-02-11T05:59:22.919Z,400.1
2023-02-11T06:00:24.717Z,400.2
2023-02-11T06:01:26.693Z,400
2023-02-11T06:02:28.882Z,399.8
2023-02-11T06:03:30.946Z,399.8
2023-02-11T06:04:32.848Z,399.8
2023-02-11T06:05:34.711Z,399.6
2023-02-11T06:06:36.564Z,399.4
2023-02-11T06:07:38.604Z,399.5
2023-02-11T06:08:40.400Z,399.3
2023-02-11T06:09:42.199Z,399.2
2023-02-11T06:10:44.214Z,399.2
2023-02-11T06:11:46.013Z,399.1
2023-02-11T06:12:47.874Z,398.9
2023-02-11T06:13:49.719Z,399.4
2023-02-11T06:14:51.770Z,399.1
2023-02-11T06:15:54.326Z,399.5
2023-02-11T06:16:56.084Z,399.2
2023-02-11T06:17:57.925Z,398.9
2023-02-11T06:18:59.887Z,398.6
2023-02-11T06:20:01.856Z,398.9
2023-02-11T06:21:03.690Z,398.7
2023-02-11T06:22:05.452Z,398.9
2023-02-11T06:23:07.285Z,399.1
2023-02-11T06:24:09.141Z,399.2
2023-02-11T06:25:11.014Z,399.2
2023-02-11T06:26:13.055Z,399.3
2023-02-11T06:27:14.908Z,398.7
2023-02-11T06:28:17.025Z,398.8
2023-02-11T06:29:18.892Z,398.4
2023-02-11T06:30:20.736Z,398.7
2023-02-11T06:31:23.054Z,398.9
2023-02-11T06:32:46.827Z,399.3
2023-02-11T06:33:48.725Z,399.1
2023-02-11T06:34:50.580Z,399.5
2023-02-11T06:35:55.512Z,399.1
2023-02-11T06:36:57.173Z,399
2023-02-11T06:37:58.993Z,399.1
2023-02-11T06:39:00.738Z,399.1
2023-02-11T06:40:02.724Z,399
2023-02-11T06:41:04.674Z,398.9
2023-02-11T06:42:08.663Z,399.1
2023-02-11T06:43:10.416Z,399
2023-02-11T06:44:12.343Z,398.6
2023-02-11T06:45:14.193Z,398.6
2023-02-11T06:46:16.175Z,398.8
2023-02-11T06:47:18.100Z,398.6
2023-02-11T06:48:20.051Z,399.1
2023-02-11T06:49:21.867Z,398.6
2023-02-11T06:50:23.671Z,398.7
2023-02-11T06:51:25.496Z,398.3
2023-02-11T06:52:27.423Z,398.4
2023-02-11T06:53:29.296Z,398.4
2023-02-11T06:54:31.084Z,398.2
2023-02-11T06:55:32.940Z,398.1
2023-02-11T06:56:34.859Z,398.8
2023-02-11T06:57:36.728Z,398.2
2023-02-11T06:58:38.539Z,398.4
2023-02-11T06:59:40.402Z,398.6
2023-02-11T07:00:42.250Z,398.5
2023-02-11T07:01:44.623Z,398.1
2023-02-11T07:02:46.574Z,398.3
2023-02-11T07:03:48.372Z,398.2
2023-02-11T07:04:50.268Z,398.4
2023-02-11T07:05:53.468Z,398.3
2023-02-11T07:06:55.303Z,398.2
2023-02-11T07:07:57.076Z,398.1
2023-02-11T07:08:58.893Z,398.3
2023-02-11T07:10:00.743Z,398.4
2023-02-11T07:11:02.583Z,398.3
2023-02-11T07:12:04.465Z,398.4
2023-02-11T07:13:06.309Z,398.3
2023-02-11T07:14:08.066Z,398.7
2023-02-11T07:15:09.887Z,398.5
2023-02-11T07:16:11.989Z,398.8
2023-02-11T07:17:13.923Z,398.7
2023-02-11T07:18:15.844Z,398.5
2023-02-11T07:19:17.676Z,398.7
2023-02-11T07:20:19.557Z,398.6
2023-02-11T07:21:21.429Z,398.8
2023-02-11T07:22:23.244Z,399.3
2023-02-11T07:23:25.203Z,399.6
2023-02-11T07:24:27.049Z,399.7
2023-02-11T07:25:28.907Z,399.5
2023-02-11T07:26:30.755Z,399.9
2023-02-11T07:27:35.545Z,400.1
2023-02-11T07:28:37.872Z,400.2
2023-02-11T07:29:39.689Z,400.4
2023-02-11T07:30:41.756Z,400.2
2023-02-11T07:31:44.199Z,400.2
2023-02-11T07:32:46.055Z,400.2
2023-02-11T07:33:47.973Z,400.3
2023-02-11T07:34:50.103Z,400.4
2023-02-11T07:35:53.405Z,400.4
2023-02-11T07:36:55.398Z,400.6
2023-02-11T07:37:57.341Z,400.5
2023-02-11T07:38:59.192Z,400.9
2023-02-11T07:40:01.049Z,400.5
2023-02-11T07:41:02.999Z,400.7
2023-02-11T07:42:04.946Z,401
2023-02-11T07:43:06.806Z,400.9
2023-02-11T07:44:08.773Z,401
2023-02-11T07:45:10.600Z,401.3
2023-02-11T07:46:12.391Z,401.4
2023-02-11T07:47:14.308Z,401.3
2023-02-11T07:48:16.156Z,401.3
2023-02-11T07:49:18.003Z,401.3
2023-02-11T07:50:19.771Z,401.2
2023-02-11T07:51:21.595Z,401.6
2023-02-11T07:52:23.241Z,402
2023-02-11T07:53:25.000Z,401.8
2023-02-11T07:54:26.841Z,401.8
2023-02-11T07:55:28.697Z,401.8
2023-02-11T07:56:30.661Z,401.8
2023-02-11T07:57:32.500Z,401.6
2023-02-11T07:58:34.343Z,402
2023-02-11T07:59:36.191Z,402.4
2023-02-11T08:00:38.133Z,402.1
2023-02-11T08:01:39.941Z,402.4
2023-02-11T08:02:41.776Z,402.3
2023-02-11T08:03:43.623Z,402.6
2023-02-11T08:04:45.439Z,402.7
2023-02-11T08:05:47.291Z,402.8
2023-02-11T08:06:49.147Z,402.7
2023-02-11T08:07:51.097Z,402.6
2023-02-11T08:08:52.954Z,402.5
2023-02-11T08:09:54.740Z,402.2
2023-02-11T08:10:56.553Z,402.4
2023-02-11T08:11:58.399Z,402.1
2023-02-11T08:13:00.344Z,402.7
2023-02-11T08:14:02.208Z,402.9
2023-02-11T08:15:04.169Z,403
2023-02-11T08:16:06.276Z,402.9
2023-02-11T08:17:08.189Z,403.1
2023-02-11T08:18:10.008Z,403
2023-02-11T08:19:11.857Z,403.2
2023-02-11T08:20:13.702Z,403.4
2023-02-11T08:21:15.554Z,403.4
2023-02-11T08:22:17.404Z,403.4
2023-02-11T08:23:19.257Z,403.6
2023-02-11T08:24:21.097Z,403.6
2023-02-11T08:25:22.962Z,403.5
2023-02-11T08:26:24.799Z,403.4
2023-02-11T08:27:29.310Z,403.1
2023-02-11T08:28:31.469Z,403.3
2023-02-11T08:29:36.119Z,403
2023-02-11T08:30:38.281Z,402.8
2023-02-11T08:31:41.262Z,402.7
2023-02-11T08:32:43.280Z,403.1
2023-02-11T08:33:45.251Z,403.1
2023-02-11T08:34:47.003Z,403.1
2023-02-11T08:35:48.822Z,403.1
2023-02-11T08:36:50.775Z,403.1
2023-02-11T08:37:52.737Z,403.2
2023-02-11T08:39:21.019Z,403.1
2023-02-11T08:40:22.955Z,402.9
2023-02-11T08:41:24.708Z,402.4
2023-02-11T08:42:26.547Z,402.7
2023-02-11T08:43:28.304Z,402.5
2023-02-11T08:44:30.168Z,402.5
2023-02-11T08:45:32.327Z,402.9
2023-02-11T08:46:34.639Z,402.8
2023-02-11T08:47:36.627Z,402.9
2023-02-11T08:48:38.474Z,402.9
2023-02-11T08:49:40.324Z,403.2
2023-02-11T08:50:42.166Z,402.8
2023-02-11T08:51:44.038Z,402.6
2023-02-11T08:52:45.909Z,403
2023-02-11T08:53:47.720Z,402.4
2023-02-11T08:54:49.567Z,402.4
2023-02-11T08:55:52.736Z,402.6
2023-02-11T08:56:54.693Z,402.8
2023-02-11T08:57:56.557Z,402.9
2023-02-11T08:58:58.418Z,402.7
2023-02-11T09:00:00.259Z,402.9
2023-02-11T09:01:02.385Z,403
2023-02-11T09:02:04.601Z,403
2023-02-11T09:03:06.370Z,403.1
2023-02-11T09:04:08.271Z,402.9
2023-02-11T09:05:10.219Z,403.2
2023-02-11T09:06:12.075Z,403
2023-02-11T09:07:14.022Z,403.4
2023-02-11T09:08:15.993Z,403.4
2023-02-11T09:09:18.038Z,403.4
2023-02-11T09:10:19.901Z,403.4
2023-02-11T09:11:21.649Z,403.1
2023-02-11T09:12:23.481Z,403.3
2023-02-11T09:13:25.537Z,403.1
2023-02-11T09:14:27.215Z,403.2
2023-02-11T09:15:28.923Z,403.6
2023-02-11T09:16:31.103Z,404
2023-02-11T09:17:33.145Z,404.1
2023-02-11T09:18:34.985Z,404.5
2023-02-11T09:19:37.010Z,404.2
2023-02-11T09:20:38.903Z,404.1
2023-02-11T09:21:40.745Z,404.3
2023-02-11T09:22:42.594Z,404.4
2023-02-11T09:23:44.438Z,404.2
2023-02-11T09:24:46.395Z,404.1
2023-02-11T09:25:48.418Z,404.4
2023-02-11T09:26:50.415Z,404.5
2023-02-11T09:27:52.261Z,404.5
2023-02-11T09:28:54.106Z,404.6
2023-02-11T09:29:58.675Z,404.4
2023-02-11T09:31:01.056Z,404.7
2023-02-11T09:32:03.643Z,405
2023-02-11T09:33:05.729Z,404.9
2023-02-11T09:34:07.768Z,405.2
2023-02-11T09:35:09.720Z,405.3
2023-02-11T09:36:11.554Z,405.3
2023-02-11T09:37:13.412Z,405.5
2023-02-11T09:38:15.268Z,405.6
2023-02-11T09:39:17.238Z,405.5
2023-02-11T09:40:19.060Z,405.7
2023-02-11T09:41:20.918Z,405.9
2023-02-11T09:42:22.770Z,405.8
2023-02-11T09:43:24.615Z,406.3
2023-02-11T09:44:26.463Z,406.1
2023-02-11T09:45:28.425Z,406.6
2023-02-11T09:46:30.703Z,406.6
2023-02-11T09:47:32.628Z,406.9
2023-02-11T09:48:34.447Z,406.9
2023-02-11T09:49:36.343Z,407.2
2023-02-11T09:50:38.281Z,407.4
2023-02-11T09:51:40.226Z,407.7
2023-02-11T09:52:44.756Z,407.4
2023-02-11T09:53:46.602Z,407.8
2023-02-11T09:54:48.452Z,407.7
2023-02-11T09:55:50.224Z,408
2023-02-11T09:56:52.149Z,408.3
2023-02-11T09:57:53.977Z,409
2023-02-11T09:58:55.865Z,409
2023-02-11T09:59:57.884Z,409.2
2023-02-11T10:01:00.065Z,409.2
2023-02-11T10:02:01.910Z,409.2
2023-02-11T10:03:03.767Z,409.5
2023-02-11T10:04:06.030Z,409.5
2023-02-11T10:05:07.869Z,409.5
2023-02-11T10:06:09.727Z,409.4
2023-02-11T10:07:11.687Z,410.1
2023-02-11T10:08:17.622Z,410.3
2023-02-11T10:09:19.480Z,410.7
2023-02-11T10:10:21.631Z,410.7
2023-02-11T10:11:32.972Z,410.9
2023-02-11T10:12:34.853Z,410.9
2023-02-11T10:13:36.698Z,411
2023-02-11T10:14:38.551Z,411
2023-02-11T10:15:40.535Z,411.3
2023-02-11T10:16:44.919Z,411.6
2023-02-11T10:17:46.978Z,411.7
2023-02-11T10:18:48.810Z,412.3
2023-02-11T10:19:50.696Z,412.5
2023-02-11T10:20:53.683Z,412.2
2023-02-11T10:21:55.617Z,412.4
2023-02-11T10:22:57.449Z,412.7
2023-02-11T10:23:59.292Z,413
2023-02-11T10:25:01.047Z,413
2023-02-11T10:26:03.005Z,413.3
2023-02-11T10:27:04.847Z,413.7
2023-02-11T10:28:06.773Z,413.7
2023-02-11T10:29:08.442Z,414
2023-02-11T10:30:10.296Z,414.5
2023-02-11T10:31:12.705Z,414.6
2023-02-11T10:32:14.652Z,414.7
2023-02-11T10:33:16.565Z,415
2023-02-11T10:34:18.413Z,415.6
2023-02-11T10:35:20.281Z,416
2023-02-11T10:36:22.103Z,416.2
2023-02-11T10:37:23.954Z,416.3
2023-02-11T10:38:25.917Z,416.6
2023-02-11T10:39:27.768Z,416.7
2023-02-11T10:40:29.615Z,416.9
2023-02-11T10:41:31.359Z,417
2023-02-11T10:42:33.250Z,417.5
2023-02-11T10:43:35.160Z,417.7
2023-02-11T10:44:37.017Z,417.9
2023-02-11T10:45:38.862Z,418
2023-02-11T10:46:41.181Z,418.6
2023-02-11T10:47:43.077Z,418.7
2023-02-11T10:48:45.054Z,418.9
2023-02-11T10:49:46.885Z,419.1
2023-02-11T10:50:50.014Z,419.2
2023-02-11T10:51:52.027Z,419.4
2023-02-11T10:52:53.782Z,419.5
2023-02-11T10:53:55.616Z,419.7
2023-02-11T10:54:57.554Z,419.8
2023-02-11T10:55:59.383Z,420
2023-02-11T10:57:01.267Z,420.2
2023-02-11T10:58:03.236Z,420.4
2023-02-11T10:59:05.070Z,420.6
2023-02-11T11:00:06.854Z,420.6
2023-02-11T11:01:25.525Z,421
2023-02-11T11:02:27.418Z,421.1
2023-02-11T11:03:29.339Z,421.2
2023-02-11T11:04:31.677Z,421.5
2023-02-11T11:05:33.562Z,421.5
2023-02-11T11:06:35.553Z,421.4
2023-02-11T11:07:37.282Z,421.7
2023-02-11T11:08:39.120Z,421.7
2023-02-11T11:09:40.967Z,422.1
2023-02-11T11:10:42.790Z,421.7
2023-02-11T11:11:44.671Z,421.7
2023-02-11T11:12:46.620Z,421.9
2023-02-11T11:13:48.447Z,421.8
2023-02-11T11:14:50.225Z,421.7
2023-02-11T11:15:52.292Z,422
2023-02-11T11:16:54.232Z,422.1
2023-02-11T11:18:23.775Z,422.1
2023-02-11T11:19:25.686Z,422.2
2023-02-11T11:20:27.555Z,422.3
2023-02-11T11:21:29.475Z,422.6
2023-02-11T11:22:31.355Z,422.7
2023-02-11T11:23:33.094Z,423
2023-02-11T11:24:35.038Z,422.8
2023-02-11T11:25:36.893Z,422.7
2023-02-11T11:26:38.653Z,423.1
2023-02-11T11:27:40.516Z,423.1
2023-02-11T11:28:42.326Z,423.1
2023-02-11T11:29:44.072Z,423.1
2023-02-11T11:30:46.271Z,423
2023-02-11T11:31:48.223Z,422.9
2023-02-11T11:32:50.130Z,423.1
2023-02-11T11:33:51.989Z,423.1
2023-02-11T11:34:53.939Z,423.2
2023-02-11T11:35:55.714Z,423.3
2023-02-11T11:36:57.458Z,423.2
2023-02-11T11:38:02.798Z,423.4
2023-02-11T11:39:04.674Z,423.6
2023-02-11T11:40:06.579Z,423.7
2023-02-11T11:41:08.520Z,424
2023-02-11T11:42:10.379Z,424.2
2023-02-11T11:43:12.176Z,424.1
2023-02-11T11:44:13.864Z,424.3
2023-02-11T11:45:15.708Z,424.3
2023-02-11T11:46:17.915Z,424.4
2023-02-11T11:47:19.713Z,424.8
2023-02-11T11:48:21.666Z,424.7
2023-02-11T11:49:23.489Z,424.8
2023-02-11T11:50:25.185Z,425.4
2023-02-11T11:51:27.012Z,425.1
2023-02-11T11:52:28.986Z,424.9
2023-02-11T11:53:30.946Z,424.8
2023-02-11T11:54:32.742Z,425.2
2023-02-11T11:55:34.624Z,425.2
2023-02-11T11:56:36.484Z,425.8
2023-02-11T11:57:38.328Z,425.6
2023-02-11T11:58:40.330Z,425.9
2023-02-11T11:59:42.329Z,425.9
2023-02-11T12:00:44.185Z,426
2023-02-11T12:01:46.255Z,426.1
2023-02-11T12:02:48.308Z,426.2
2023-02-11T12:03:50.127Z,426.4
2023-02-11T12:04:52.007Z,426.6
2023-02-11T12:05:53.831Z,427.2
2023-02-11T12:06:55.789Z,427.2
2023-02-11T12:07:57.648Z,427.5
2023-02-11T12:08:59.611Z,427.4
2023-02-11T12:10:01.449Z,427.5
2023-02-11T12:11:03.208Z,427.8
2023-02-11T12:12:04.956Z,428.1
2023-02-11T12:13:06.784Z,427.8
2023-02-11T12:14:08.646Z,428.1
2023-02-11T12:15:10.457Z,428
2023-02-11T12:16:14.218Z,428.2
2023-02-11T12:17:16.034Z,428.5
2023-02-11T12:18:17.876Z,428.4
2023-02-11T12:19:19.839Z,428.8
2023-02-11T12:20:21.787Z,428.6
2023-02-11T12:21:23.741Z,429.3
2023-02-11T12:22:25.585Z,428.9
2023-02-11T12:23:27.429Z,428.7
2023-02-11T12:24:29.548Z,428.7
2023-02-11T12:25:31.447Z,428.8
2023-02-11T12:26:33.301Z,429.6
2023-02-11T12:27:35.104Z,429.6
2023-02-11T12:28:37.163Z,430.2
2023-02-11T12:29:39.155Z,430.6
2023-02-11T12:30:41.206Z,430.6
2023-02-11T12:31:43.193Z,430.4
2023-02-11T12:32:45.015Z,430.8
2023-02-11T12:33:46.851Z,431
2023-02-11T12:34:48.714Z,431.4
2023-02-11T12:35:50.563Z,432
2023-02-11T12:36:52.538Z,432.1
2023-02-11T12:37:54.372Z,432.1
2023-02-11T12:38:56.186Z,431.9
2023-02-11T12:39:58.192Z,431.9
2023-02-11T12:41:00.007Z,432
2023-02-11T12:42:01.875Z,431.8
2023-02-11T12:43:03.720Z,432
2023-02-11T12:44:05.560Z,431.8
2023-02-11T12:45:07.418Z,432.1
2023-02-11T12:46:09.513Z,432.1
2023-02-11T12:47:11.427Z,432.4
2023-02-11T12:48:13.272Z,432.1
2023-02-11T12:49:15.126Z,432.2
2023-02-11T12:50:17.068Z,432.4
2023-02-11T12:51:18.919Z,432.3
2023-02-11T12:52:20.779Z,432.4
2023-02-11T12:53:22.619Z,432.7
2023-02-11T12:54:24.467Z,432.9
2023-02-11T12:55:26.345Z,432.6
2023-02-11T12:56:28.169Z,432.9
2023-02-11T12:57:29.919Z,433
2023-02-11T12:58:46.306Z,433.3
2023-02-11T12:59:48.166Z,433.9
2023-02-11T13:00:51.816Z,433.5
2023-02-11T13:01:54.024Z,433.7
2023-02-11T13:02:55.860Z,433.4
2023-02-11T13:03:57.589Z,433.7
2023-02-11T13:04:59.438Z,433.9
2023-02-11T13:06:01.383Z,433.9
2023-02-11T13:07:03.270Z,434
2023-02-11T13:08:05.060Z,433.6
2023-02-11T13:09:06.866Z,433.9
2023-02-11T13:10:08.645Z,433.8
2023-02-11T13:11:15.039Z,434
2023-02-11T13:12:16.820Z,434
2023-02-11T13:13:18.696Z,434.4
2023-02-11T13:14:20.524Z,434.2
2023-02-11T13:15:22.343Z,434.5
2023-02-11T13:16:24.555Z,434.5
2023-02-11T13:17:26.385Z,434.5
2023-02-11T13:18:28.218Z,434.3
2023-02-11T13:19:32.671Z,434.8
2023-02-11T13:20:34.482Z,434.5
2023-02-11T13:21:36.442Z,434.8
2023-02-11T13:22:38.267Z,434.6
2023-02-11T13:23:40.142Z,434.8
2023-02-11T13:24:41.986Z,434.7